createdAt,value
2022-10-18T00:01:12.371Z,82.39
2022-10-18T00:05:17.979Z,82.57
2022-10-18T00:09:20.131Z,82.51
2022-10-18T00:13:22.216Z,82.63
2022-10-18T00:17:25.152Z,82.55
2022-10-18T00:21:27.576Z,82.42
2022-10-18T00:25:29.633Z,82.33
2022-10-18T00:29:31.737Z,82.17
2022-10-18T00:33:33.727Z,82.26
2022-10-18T00:37:35.889Z,82.20
2022-10-18T00:41:37.964Z,82.17
2022-10-18T00:45:39.827Z,82.30
2022-10-18T00:49:53.248Z,82.44
2022-10-18T00:53:55.211Z,82.57
2022-10-18T00:57:57.614Z,82.62
2022-10-18T01:01:59.660Z,82.26
2022-10-18T01:06:01.596Z,82.12
2022-10-18T01:10:03.920Z,82.22
2022-10-18T01:14:23.341Z,82.58
2022-10-18T01:18:41.164Z,82.83
2022-10-18T01:23:03.808Z,82.76
2022-10-18T01:27:08.723Z,82.58
2022-10-18T01:31:20.988Z,82.67
2022-10-18T01:35:49.289Z,83.04
2022-10-18T01:39:56.711Z,82.59
2022-10-18T01:44:01.952Z,82.47
2022-10-18T01:48:04.073Z,82.76
2022-10-18T01:52:06.047Z,83.40
2022-10-18T01:56:53.039Z,83.66
2022-10-18T02:01:03.417Z,84.48
2022-10-18T02:05:32.609Z,84.57
2022-10-18T02:09:46.370Z,84.59
2022-10-18T02:13:56.585Z,84.42
2022-10-18T02:17:58.562Z,84.80
2022-10-18T02:22:01.361Z,85.09
2022-10-18T02:26:03.794Z,85.11
2022-10-18T02:30:06.469Z,85.40
2022-10-18T02:34:31.654Z,85.43
2022-10-18T02:38:34.310Z,85.47
2022-10-18T02:42:39.318Z,85.38
2022-10-18T02:46:41.473Z,85.74
2022-10-18T02:50:43.374Z,85.92
2022-10-18T02:54:45.201Z,85.99
2022-10-18T02:58:47.022Z,86.34
2022-10-18T03:02:48.979Z,86.67
2022-10-18T03:06:50.876Z,86.78
2022-10-18T03:10:52.682Z,86.76
2022-10-18T03:14:54.513Z,86.81
2022-10-18T03:18:56.392Z,86.68
2022-10-18T03:22:58.237Z,86.64
2022-10-18T03:27:00.032Z,86.66
2022-10-18T03:31:03.952Z,86.73
2022-10-18T03:35:07.366Z,86.59
2022-10-18T03:39:11.942Z,86.29
2022-10-18T03:43:14.092Z,86.31
2022-10-18T03:47:16.040Z,86.37
2022-10-18T03:51:18.028Z,86.51
2022-10-18T03:55:19.849Z,86.54
2022-10-18T03:59:22.507Z,86.76
2022-10-18T04:03:24.386Z,86.78
2022-10-18T04:07:26.264Z,86.59
2022-10-18T04:11:28.188Z,86.51
2022-10-18T04:15:30.077Z,86.27
2022-10-18T04:19:31.884Z,86.40
2022-10-18T04:23:36.376Z,86.59
2022-10-18T04:27:40.807Z,86.44
2022-10-18T04:31:42.828Z,86.15
2022-10-18T04:35:45.960Z,86.02
2022-10-18T04:39:51.148Z,86.27
2022-10-18T04:43:55.541Z,86.38
2022-10-18T04:47:57.347Z,86.35
2022-10-18T04:51:59.168Z,86.64
2022-10-18T04:56:01.007Z,86.79
2022-10-18T05:00:03.907Z,86.76
2022-10-18T05:04:05.728Z,86.84
2022-10-18T05:08:07.620Z,86.75
2022-10-18T05:12:09.539Z,86.71
2022-10-18T05:16:11.461Z,86.58
2022-10-18T05:24:16.240Z,86.60
2022-10-18T05:32:39.884Z,86.66
2022-10-18T05:36:41.711Z,86.86
2022-10-18T05:40:43.535Z,86.97
2022-10-18T05:44:45.538Z,86.85
2022-10-18T05:48:50.915Z,86.86
2022-10-18T05:53:02.665Z,86.66
2022-10-18T05:57:14.713Z,86.50
2022-10-18T06:01:17.445Z,86.57
2022-10-18T06:05:19.349Z,86.51
2022-10-18T06:09:21.621Z,86.28
2022-10-18T06:13:23.696Z,86.23
2022-10-18T06:17:26.829Z,86.41
2022-10-18T06:21:32.260Z,86.27
2022-10-18T06:25:34.164Z,86.35
2022-10-18T06:29:37.439Z,86.19
2022-10-18T06:33:39.437Z,85.87
2022-10-18T06:41:44.835Z,86.48
2022-10-18T06:45:55.938Z,86.56
2022-10-18T06:49:57.779Z,86.45
2022-10-18T06:54:16.889Z,86.29
2022-10-18T06:58:19.845Z,86.28
2022-10-18T07:02:21.859Z,86.31
2022-10-18T07:06:24.296Z,86.17
2022-10-18T07:10:26.262Z,86.10
2022-10-18T07:14:29.105Z,85.88
2022-10-18T07:18:51.735Z,85.70
2022-10-18T07:22:56.608Z,85.38
2022-10-18T07:26:59.056Z,85.17
2022-10-18T07:31:06.104Z,85.04
2022-10-18T07:35:08.407Z,84.70
2022-10-18T07:39:10.378Z,84.15
2022-10-18T07:43:12.514Z,84.11
2022-10-18T07:47:14.791Z,84.06
2022-10-18T07:51:18.764Z,84.06
2022-10-18T07:55:20.614Z,83.86
2022-10-18T07:59:22.489Z,83.70
2022-10-18T08:03:27.605Z,83.60
2022-10-18T08:07:29.755Z,83.18
2022-10-18T08:11:32.113Z,82.67
2022-10-18T08:15:33.981Z,82.42
2022-10-18T08:19:35.929Z,81.91
2022-10-18T08:23:38.964Z,81.43
2022-10-18T08:27:41.885Z,80.89
2022-10-18T08:31:43.744Z,80.77
2022-10-18T08:35:55.557Z,80.02
2022-10-18T08:39:57.494Z,79.69
2022-10-18T08:44:18.269Z,79.14
2022-10-18T08:48:27.070Z,78.75
2022-10-18T08:53:04.718Z,78.26
2022-10-18T08:57:14.591Z,77.83
2022-10-18T09:01:27.522Z,77.06
2022-10-18T09:06:00.896Z,75.67
2022-10-18T09:10:41.714Z,74.61
2022-10-18T09:14:49.603Z,75.30
2022-10-18T09:18:51.605Z,75.17
2022-10-18T09:23:12.026Z,75.05
2022-10-18T09:27:16.103Z,74.64
2022-10-18T09:31:30.214Z,74.48
2022-10-18T09:36:02.463Z,73.93
2022-10-18T09:40:19.002Z,73.43
2022-10-18T09:44:27.153Z,73.22
2022-10-18T09:48:35.660Z,73.05
2022-10-18T09:52:44.036Z,72.72
2022-10-18T09:56:50.584Z,72.38
2022-10-18T10:00:53.360Z,72.04
2022-10-18T10:04:55.920Z,71.81
2022-10-18T10:09:15.034Z,71.31
2022-10-18T10:13:24.136Z,71.13
2022-10-18T10:17:30.913Z,71.11
2022-10-18T10:21:33.335Z,70.43
2022-10-18T10:25:38.404Z,70.08
2022-10-18T10:29:46.402Z,68.77
2022-10-18T10:33:59.960Z,68.69
2022-10-18T10:38:02.053Z,68.99
2022-10-18T10:42:05.835Z,69.20
2022-10-18T10:46:13.093Z,69.32
2022-10-18T10:50:27.670Z,68.70
2022-10-18T10:54:38.895Z,68.73
2022-10-18T10:58:41.753Z,68.49
2022-10-18T11:02:55.385Z,68.17
2022-10-18T11:07:19.781Z,67.95
2022-10-18T11:11:27.486Z,68.13
2022-10-18T11:15:35.545Z,68.21
2022-10-18T11:19:57.658Z,67.95
2022-10-18T11:24:02.553Z,67.69
2022-10-18T11:28:42.240Z,67.02
2022-10-18T11:32:59.309Z,67.09
2022-10-18T11:37:26.403Z,67.12
2022-10-18T11:41:50.063Z,66.90
2022-10-18T11:46:07.890Z,66.62
2022-10-18T11:50:29.876Z,66.58
2022-10-18T11:54:56.072Z,66.40
2022-10-18T11:59:07.233Z,65.97
2022-10-18T12:03:27.898Z,65.94
2022-10-18T12:07:39.662Z,65.70
2022-10-18T12:12:06.016Z,65.82
2022-10-18T12:16:09.936Z,65.87
2022-10-18T12:20:27.321Z,65.80
2022-10-18T12:24:31.367Z,65.75
2022-10-18T12:28:56.715Z,65.34
2022-10-18T12:33:28.101Z,65.41
2022-10-18T12:37:56.522Z,65.29
2022-10-18T12:41:58.708Z,65.11
2022-10-18T12:46:02.013Z,65.02
2022-10-18T12:50:22.590Z,64.93
2022-10-18T12:54:36.295Z,64.74
2022-10-18T12:58:38.246Z,64.57
2022-10-18T13:02:40.470Z,64.61
2022-10-18T13:06:58.006Z,64.56
2022-10-18T13:11:09.298Z,64.57
2022-10-18T13:15:26.996Z,64.52
2022-10-18T13:20:07.683Z,63.55
2022-10-18T13:24:17.060Z,63.90
2022-10-18T13:28:31.011Z,64.19
2022-10-18T13:33:00.653Z,64.63
2022-10-18T13:37:18.320Z,64.61
2022-10-18T13:45:35.456Z,64.44
2022-10-18T13:49:55.972Z,64.77
2022-10-18T13:54:14.727Z,64.67
2022-10-18T13:59:13.187Z,64.92
2022-10-18T14:03:55.546Z,65.15
2022-10-18T14:07:58.111Z,65.26
2022-10-18T14:12:14.332Z,65.39
2022-10-18T14:16:53.896Z,65.69
2022-10-18T14:21:13.389Z,65.75
2022-10-18T14:25:26.449Z,66.02
2022-10-18T14:29:28.417Z,66.18
2022-10-18T14:33:37.605Z,66.55
2022-10-18T14:37:39.977Z,66.66
2022-10-18T14:41:53.363Z,66.80
2022-10-18T14:46:16.149Z,67.02
2022-10-18T14:50:23.781Z,67.25
2022-10-18T14:54:32.221Z,67.59
2022-10-18T14:58:37.481Z,67.80
2022-10-18T15:02:39.610Z,67.99
2022-10-18T15:06:46.329Z,68.12
2022-10-18T15:10:49.199Z,68.30
2022-10-18T15:14:53.018Z,68.32
2022-10-18T15:19:03.869Z,68.44
2022-10-18T15:23:24.814Z,68.66
2022-10-18T15:27:32.279Z,69.01
2022-10-18T15:31:43.918Z,69.16
2022-10-18T15:35:45.999Z,69.55
2022-10-18T15:39:48.376Z,69.83
2022-10-18T15:43:50.328Z,70.08
2022-10-18T15:48:11.710Z,70.66
2022-10-18T15:52:30.047Z,70.98
2022-10-18T15:56:35.838Z,71.23
2022-10-18T16:00:37.850Z,71.47
2022-10-18T16:04:39.803Z,71.78
2022-10-18T16:08:52.694Z,72.05
2022-10-18T16:17:03.606Z,72.51
2022-10-18T16:21:13.539Z,72.69
2022-10-18T16:25:15.807Z,72.96
2022-10-18T16:29:24.065Z,73.20
2022-10-18T16:33:26.706Z,73.61
2022-10-18T16:37:29.129Z,73.99
2022-10-18T16:41:31.092Z,74.11
2022-10-18T16:45:33.124Z,74.37
2022-10-18T16:49:35.059Z,74.60
2022-10-18T16:53:36.961Z,74.73
2022-10-18T16:57:38.864Z,74.90
2022-10-18T17:01:40.778Z,74.99
2022-10-18T17:05:43.699Z,75.06
2022-10-18T17:09:49.329Z,75.44
2022-10-18T17:13:51.667Z,75.86
2022-10-18T17:17:53.615Z,76.32
2022-10-18T17:22:00.165Z,76.81
2022-10-18T17:26:07.249Z,77.62
2022-10-18T17:30:17.566Z,78.24
2022-10-18T17:34:21.304Z,78.38
2022-10-18T17:38:23.820Z,79.05
2022-10-18T17:42:25.953Z,79.28
2022-10-18T17:46:28.046Z,79.72
2022-10-18T17:50:30.126Z,80.26
2022-10-18T17:54:32.190Z,81.09
2022-10-18T17:58:34.811Z,81.73
2022-10-18T18:02:39.717Z,82.37
2022-10-18T18:06:45.062Z,82.75
2022-10-18T18:14:54.327Z,83.18
2022-10-18T18:18:58.049Z,83.99
2022-10-18T18:23:00.128Z,84.33
2022-10-18T18:27:02.161Z,84.65
2022-10-18T18:31:24.559Z,84.94
2022-10-18T18:35:26.784Z,85.10
2022-10-18T18:39:35.303Z,85.19
2022-10-18T18:43:38.416Z,85.33
2022-10-18T18:47:40.419Z,85.63
2022-10-18T18:51:42.616Z,85.73
2022-10-18T18:55:44.754Z,86.12
2022-10-18T18:59:46.828Z,86.43
2022-10-18T19:03:51.220Z,86.57
2022-10-18T19:07:53.200Z,86.70
2022-10-18T19:11:55.779Z,86.75
2022-10-18T19:16:19.431Z,86.79
2022-10-18T19:20:21.545Z,86.88
2022-10-18T19:24:25.337Z,86.86
2022-10-18T19:28:27.955Z,86.64
2022-10-18T19:32:29.940Z,86.62
2022-10-18T19:36:32.691Z,86.71
2022-10-18T19:40:34.570Z,86.83
2022-10-18T19:44:36.991Z,87.05
2022-10-18T19:48:39.120Z,87.14
2022-10-18T19:52:41.112Z,86.84
2022-10-18T19:56:43.376Z,86.78
2022-10-18T20:00:51.981Z,86.92
2022-10-18T20:04:53.860Z,86.98
2022-10-18T20:08:57.556Z,86.98
2022-10-18T20:12:59.492Z,86.95
2022-10-18T20:17:01.390Z,87.03
2022-10-18T20:21:07.592Z,87.28
2022-10-18T20:25:09.504Z,87.61
2022-10-18T20:29:12.109Z,87.65
2022-10-18T20:33:14.099Z,87.98
2022-10-18T20:37:16.182Z,88.25
2022-10-18T20:41:29.779Z,88.49
2022-10-18T20:45:31.759Z,88.53
2022-10-18T20:49:33.727Z,88.60
2022-10-18T20:53:37.491Z,88.69
2022-10-18T20:57:39.730Z,88.69
2022-10-18T21:01:42.118Z,88.67
2022-10-18T21:05:44.198Z,88.65
2022-10-18T21:09:46.225Z,88.79
2022-10-18T21:13:53.081Z,88.86
2022-10-18T21:17:54.977Z,89.05
2022-10-18T21:21:57.501Z,89.21
2022-10-18T21:25:59.400Z,89.08
2022-10-18T21:30:01.923Z,89.02
2022-10-18T21:34:07.363Z,89.42
2022-10-18T21:38:09.646Z,89.44
2022-10-18T21:42:13.141Z,89.40
2022-10-18T21:46:16.764Z,89.27
2022-10-18T21:50:18.611Z,89.01
2022-10-18T21:54:20.568Z,89.18
2022-10-18T21:58:22.432Z,89.08
2022-10-18T22:02:24.263Z,89.28
2022-10-18T22:06:29.545Z,89.53
2022-10-18T22:10:32.563Z,89.49
2022-10-18T22:14:34.801Z,89.19
2022-10-18T22:18:37.173Z,89.11
2022-10-18T22:22:39.072Z,89.15
2022-10-18T22:26:42.612Z,88.96
2022-10-18T22:30:44.514Z,89.06
2022-10-18T22:34:46.348Z,89.12
2022-10-18T22:38:48.371Z,89.30
2022-10-18T22:42:51.932Z,89.21
2022-10-18T22:46:53.765Z,89.43
2022-10-18T22:50:55.772Z,89.75
2022-10-18T22:54:57.583Z,89.92
2022-10-18T22:58:59.537Z,90.21
2022-10-18T23:03:01.351Z,90.26
2022-10-18T23:07:03.295Z,90.46
2022-10-18T23:11:05.272Z,90.50
2022-10-18T23:15:07.749Z,90.53
2022-10-18T23:19:14.790Z,90.62
2022-10-18T23:23:16.660Z,90.66
2022-10-18T23:27:18.480Z,90.76
2022-10-18T23:31:29.079Z,90.79
2022-10-18T23:35:31.268Z,90.96
2022-10-18T23:39:33.137Z,90.94
2022-10-18T23:43:35.454Z,91.09
2022-10-18T23:47:37.325Z,91.01
2022-10-18T23:51:39.163Z,91.04
2022-10-18T23:55:59.154Z,90.97
